createdAt,value
2018-11-05T00:09:20.841Z,21.20
2018-11-05T00:19:24.224Z,22.37
2018-11-05T00:29:27.582Z,22.03
2018-11-05T00:39:30.945Z,19.90
2018-11-05T00:49:34.309Z,19.83
2018-11-05T00:59:37.722Z,21.10
2018-11-05T01:09:41.197Z,20.70
2018-11-05T01:19:44.546Z,19.13
2018-11-05T01:29:47.922Z,20.27
2018-11-05T01:39:51.651Z,20.27
2018-11-05T01:49:54.982Z,20.80
2018-11-05T01:59:58.429Z,18.30
2018-11-05T02:10:08.800Z,18.53
2018-11-05T02:20:12.871Z,19.20
2018-11-05T02:30:18.100Z,18.27
2018-11-05T02:40:22.976Z,19.63
2018-11-05T02:50:26.369Z,18.85
2018-11-05T03:00:29.751Z,18.12
2018-11-05T03:10:33.111Z,19.83
2018-11-05T03:20:36.521Z,20.90
2018-11-05T03:30:39.893Z,21.07
2018-11-05T03:40:44.193Z,21.00
2018-11-05T03:50:47.549Z,18.60
2018-11-05T04:00:51.038Z,20.00
2018-11-05T04:10:54.401Z,20.07
2018-11-05T04:20:57.747Z,22.33
2018-11-05T04:31:05.224Z,18.67
2018-11-05T04:41:08.656Z,20.43
2018-11-05T04:51:12.055Z,20.80
2018-11-05T05:01:16.405Z,18.87
2018-11-05T05:11:20.401Z,20.27
2018-11-05T05:21:23.760Z,21.60
2018-11-05T05:31:27.232Z,22.17
2018-11-05T05:41:30.705Z,23.13
2018-11-05T05:51:34.002Z,23.50
2018-11-05T06:01:37.383Z,22.33
2018-11-05T06:11:40.800Z,22.53
2018-11-05T06:21:45.818Z,22.57
2018-11-05T06:31:49.751Z,23.13
2018-11-05T06:41:53.189Z,22.93
2018-11-05T06:51:56.488Z,23.97
2018-11-05T07:01:59.889Z,25.30
2018-11-05T07:12:03.552Z,25.57
2018-11-05T07:22:06.924Z,25.00
2018-11-05T07:32:10.330Z,23.20
2018-11-05T07:42:15.970Z,23.70
2018-11-05T07:52:19.392Z,22.77
2018-11-05T08:02:22.766Z,22.20
2018-11-05T08:12:27.669Z,23.40
2018-11-05T08:22:31.030Z,23.07
2018-11-05T08:32:34.412Z,22.87
2018-11-05T08:42:37.796Z,20.43
2018-11-05T08:52:41.203Z,21.37
2018-11-05T09:02:46.710Z,21.57
2018-11-05T09:12:50.093Z,21.57
2018-11-05T09:22:53.715Z,21.67
2018-11-05T09:32:57.047Z,23.13
2018-11-05T09:43:00.425Z,22.33
2018-11-05T09:53:03.762Z,23.63
2018-11-05T10:03:12.638Z,23.17
2018-11-05T10:13:17.475Z,24.40
2018-11-05T10:23:20.953Z,23.63
2018-11-05T10:33:24.358Z,24.73
2018-11-05T10:43:27.673Z,25.53
2018-11-05T10:53:31.067Z,25.97
2018-11-05T11:03:35.536Z,26.00
2018-11-05T11:13:38.850Z,27.10
2018-11-05T11:23:42.699Z,27.27
2018-11-05T11:33:50.209Z,25.63
2018-11-05T11:43:53.600Z,26.70
2018-11-05T11:54:00.839Z,28.47
2018-11-05T12:04:04.238Z,26.37
2018-11-05T12:14:07.868Z,25.83
2018-11-05T12:24:11.281Z,26.03
2018-11-05T12:34:15.452Z,27.20
2018-11-05T12:44:19.770Z,27.37
2018-11-05T12:54:23.102Z,26.57
2018-11-05T13:04:26.828Z,25.60
2018-11-05T13:14:30.206Z,24.97
2018-11-05T13:24:33.602Z,25.47
2018-11-05T13:34:37.055Z,24.97
2018-11-05T13:44:40.464Z,25.80
2018-11-05T13:54:44.239Z,27.70
2018-11-05T14:04:51.355Z,27.30
2018-11-05T14:14:54.755Z,26.53
2018-11-05T14:24:58.175Z,24.90
2018-11-05T14:35:01.522Z,23.47
2018-11-05T14:45:06.440Z,25.32
2018-11-05T14:55:19.120Z,24.80
2018-11-05T15:05:22.505Z,27.27
2018-11-05T15:15:26.471Z,26.33
2018-11-05T15:25:35.751Z,25.33
2018-11-05T15:35:39.113Z,27.03
2018-11-05T15:45:42.595Z,25.50
2018-11-05T15:55:46.013Z,29.13
2018-11-05T16:05:51.760Z,27.67
2018-11-05T16:15:55.194Z,26.87
2018-11-05T16:25:59.313Z,27.60
2018-11-05T16:36:02.684Z,29.67
2018-11-05T16:46:11.981Z,27.87
2018-11-05T16:56:15.387Z,30.30
2018-11-05T17:06:23.612Z,29.63
2018-11-05T17:16:27.001Z,29.07
2018-11-05T17:26:30.971Z,28.23
2018-11-05T17:36:34.943Z,25.63
2018-11-05T17:46:44.449Z,31.23
2018-11-05T17:56:53.724Z,22.73
2018-11-05T18:06:57.542Z,26.47
2018-11-05T18:17:00.935Z,29.03
2018-11-05T18:27:10.147Z,31.20
2018-11-05T18:37:13.914Z,29.00
2018-11-05T18:47:18.167Z,32.80
2018-11-05T18:57:21.551Z,29.80
2018-11-05T19:07:24.931Z,28.60
2018-11-05T19:17:28.432Z,29.60
2018-11-05T19:27:31.792Z,26.70
2018-11-05T19:37:35.252Z,25.23
2018-11-05T19:47:39.051Z,25.33
2018-11-05T19:57:43.340Z,24.67
2018-11-05T20:07:47.290Z,22.97
2018-11-05T20:17:52.380Z,25.43
2018-11-05T20:27:55.838Z,23.40
2018-11-05T20:37:59.221Z,23.53
2018-11-05T20:48:06.969Z,24.80
2018-11-05T20:58:11.102Z,23.20
2018-11-05T21:08:14.438Z,22.90
2018-11-05T21:18:23.196Z,25.40
2018-11-05T21:28:26.542Z,22.07
2018-11-05T21:38:29.972Z,23.53
2018-11-05T21:48:33.383Z,21.00
2018-11-05T21:58:37.469Z,21.67
2018-11-05T22:08:45.327Z,21.43
2018-11-05T22:18:49.659Z,23.03
2018-11-05T22:28:52.999Z,20.53
2018-11-05T22:39:02.162Z,19.57
2018-11-05T22:49:05.557Z,21.30
2018-11-05T22:59:08.912Z,21.13
2018-11-05T23:09:12.303Z,19.47
2018-11-05T23:19:22.658Z,21.30
2018-11-05T23:29:25.994Z,23.43
2018-11-05T23:39:30.573Z,24.33
2018-11-05T23:49:33.931Z,21.73
2018-11-05T23:59:38.518Z,21.60
